createdAt,value
2018-11-03T00:00:03.786Z,7.80
2018-11-03T00:02:32.798Z,7.83
2018-11-03T00:05:01.798Z,8.80
2018-11-03T00:07:30.829Z,7.83
2018-11-03T00:09:59.834Z,8.67
2018-11-03T00:12:28.878Z,8.30
2018-11-03T00:14:57.902Z,8.70
2018-11-03T00:17:26.931Z,9.17
2018-11-03T00:19:55.975Z,8.57
2018-11-03T00:22:24.993Z,8.00
2018-11-03T00:24:54.023Z,9.33
2018-11-03T00:27:23.094Z,9.37
2018-11-03T00:29:52.114Z,9.03
2018-11-03T00:32:21.127Z,9.17
2018-11-03T00:34:50.155Z,8.57
2018-11-03T00:37:19.147Z,8.17
2018-11-03T00:39:48.167Z,8.20
2018-11-03T00:42:17.180Z,8.30
2018-11-03T00:44:46.224Z,11.90
2018-11-03T00:47:15.299Z,8.07
2018-11-03T00:49:44.301Z,7.57
2018-11-03T00:52:13.308Z,8.37
2018-11-03T00:54:42.375Z,8.83
2018-11-03T00:57:11.365Z,9.37
2018-11-03T00:59:40.430Z,9.53
2018-11-03T01:02:09.468Z,9.53
2018-11-03T01:04:39.810Z,10.13
2018-11-03T01:07:08.845Z,9.80
2018-11-03T01:09:37.879Z,10.43
2018-11-03T01:12:06.887Z,9.40
2018-11-03T01:14:35.901Z,8.43
2018-11-03T01:17:04.980Z,9.70
2018-11-03T01:19:33.997Z,9.20
2018-11-03T01:22:03.025Z,9.37
2018-11-03T01:24:32.027Z,8.57
2018-11-03T01:27:01.075Z,9.57
2018-11-03T01:29:30.091Z,8.37
2018-11-03T01:31:59.117Z,8.73
2018-11-03T01:34:28.119Z,9.03
2018-11-03T01:36:57.111Z,7.97
2018-11-03T01:39:26.115Z,8.20
2018-11-03T01:41:55.127Z,8.07
2018-11-03T01:44:24.159Z,8.47
2018-11-03T01:46:53.177Z,8.50
2018-11-03T01:49:22.227Z,10.60
2018-11-03T01:51:51.235Z,9.67
2018-11-03T01:54:20.267Z,9.30
2018-11-03T01:56:49.250Z,9.90
2018-11-03T01:59:18.265Z,9.13
2018-11-03T02:01:47.301Z,8.93
2018-11-03T02:04:16.323Z,9.83
2018-11-03T02:06:45.365Z,9.23
2018-11-03T02:09:14.368Z,9.93
2018-11-03T02:11:43.396Z,9.10
2018-11-03T02:14:12.412Z,8.90
2018-11-03T02:16:41.410Z,9.43
2018-11-03T02:19:10.462Z,9.80
2018-11-03T02:21:39.521Z,9.07
2018-11-03T02:24:08.536Z,9.73
2018-11-03T02:26:37.554Z,9.20
2018-11-03T02:29:06.588Z,10.17
2018-11-03T02:31:35.606Z,9.47
2018-11-03T02:34:04.723Z,9.50
2018-11-03T02:36:33.687Z,9.17
2018-11-03T02:39:02.755Z,8.50
2018-11-03T02:41:31.746Z,8.80
2018-11-03T02:44:00.776Z,8.13
2018-11-03T02:46:29.769Z,7.80
2018-11-03T02:48:58.759Z,7.80
2018-11-03T02:51:27.766Z,8.00
2018-11-03T02:53:56.852Z,7.97
2018-11-03T02:56:25.871Z,8.17
2018-11-03T02:58:54.867Z,8.33
2018-11-03T03:01:23.866Z,7.90
2018-11-03T03:03:52.924Z,8.50
2018-11-03T03:06:21.908Z,8.60
2018-11-03T03:08:50.916Z,8.63
2018-11-03T03:11:19.953Z,8.70
2018-11-03T03:13:49.013Z,9.00
2018-11-03T03:16:18.040Z,8.00
2018-11-03T03:18:47.046Z,8.60
2018-11-03T03:21:16.094Z,7.67
2018-11-03T03:23:45.086Z,8.13
2018-11-03T03:26:14.902Z,7.93
2018-11-03T03:28:43.912Z,8.83
2018-11-03T03:31:12.942Z,8.27
2018-11-03T03:33:41.982Z,7.30
2018-11-03T03:36:10.983Z,7.83
2018-11-03T03:38:39.990Z,7.50
2018-11-03T03:41:08.987Z,7.57
2018-11-03T03:43:38.077Z,7.20
2018-11-03T03:46:07.066Z,7.57
2018-11-03T03:48:36.088Z,7.50
2018-11-03T03:51:05.112Z,6.83
2018-11-03T03:53:34.146Z,7.27
2018-11-03T03:56:03.141Z,7.37
2018-11-03T03:58:32.196Z,7.53
2018-11-03T04:01:01.260Z,6.90
2018-11-03T04:03:30.209Z,7.60
2018-11-03T04:05:59.235Z,7.17
2018-11-03T04:08:28.256Z,7.73
2018-11-03T04:10:57.293Z,8.40
2018-11-03T04:13:26.318Z,7.90
2018-11-03T04:15:55.321Z,7.47
2018-11-03T04:18:24.348Z,7.33
2018-11-03T04:20:53.389Z,7.57
2018-11-03T04:23:22.408Z,7.97
2018-11-03T04:25:51.402Z,9.10
2018-11-03T04:28:20.441Z,8.63
2018-11-03T04:30:49.478Z,8.50
2018-11-03T04:33:18.470Z,8.13
2018-11-03T04:35:47.498Z,8.47
2018-11-03T04:38:16.514Z,9.53
2018-11-03T04:40:45.523Z,8.57
2018-11-03T04:43:14.504Z,9.27
2018-11-03T04:45:43.519Z,9.53
2018-11-03T04:48:12.523Z,9.30
2018-11-03T04:50:41.547Z,9.40
2018-11-03T04:53:10.559Z,10.97
2018-11-03T04:55:39.552Z,9.97
2018-11-03T04:58:08.534Z,9.23
2018-11-03T05:00:37.585Z,9.47
2018-11-03T05:03:06.594Z,9.03
2018-11-03T05:05:35.620Z,8.97
2018-11-03T05:08:04.769Z,8.77
2018-11-03T05:10:33.780Z,8.67
2018-11-03T05:13:02.775Z,9.10
2018-11-03T05:15:31.908Z,8.37
2018-11-03T05:18:00.957Z,8.53
2018-11-03T05:20:30.009Z,8.87
2018-11-03T05:22:59.048Z,8.57
2018-11-03T05:25:28.100Z,8.33
2018-11-03T05:27:57.234Z,8.13
2018-11-03T05:30:26.360Z,7.63
2018-11-03T05:32:55.561Z,7.93
2018-11-03T05:35:24.664Z,8.33
2018-11-03T05:37:54.189Z,7.83
2018-11-03T05:40:26.682Z,8.40
2018-11-03T05:42:55.711Z,8.70
2018-11-03T05:45:24.861Z,9.53
2018-11-03T05:47:53.955Z,8.07
2018-11-03T05:50:23.019Z,9.67
2018-11-03T05:52:52.099Z,8.67
2018-11-03T05:55:24.972Z,9.00
2018-11-03T05:57:54.037Z,9.57
2018-11-03T06:00:26.321Z,8.57
2018-11-03T06:02:56.205Z,9.00
2018-11-03T06:05:25.491Z,9.83
2018-11-03T06:07:55.031Z,10.03
2018-11-03T06:10:24.151Z,9.70
2018-11-03T06:12:53.283Z,10.73
2018-11-03T06:15:22.431Z,10.50
2018-11-03T06:17:52.597Z,10.83
2018-11-03T06:20:21.680Z,9.83
2018-11-03T06:22:52.359Z,10.20
2018-11-03T06:25:21.425Z,10.57
2018-11-03T06:27:50.645Z,11.30
2018-11-03T06:30:20.198Z,11.83
2018-11-03T06:32:49.266Z,12.00
2018-11-03T06:35:18.492Z,12.10
2018-11-03T06:37:47.483Z,12.27
2018-11-03T06:40:24.489Z,11.73
2018-11-03T06:42:53.542Z,12.10
2018-11-03T06:45:22.646Z,12.60
2018-11-03T06:47:51.769Z,12.03
2018-11-03T06:50:20.889Z,13.23
2018-11-03T06:52:49.938Z,14.20
2018-11-03T06:55:22.402Z,13.67
2018-11-03T06:57:51.484Z,14.60
2018-11-03T07:00:21.676Z,15.53
2018-11-03T07:02:50.802Z,14.40
2018-11-03T07:05:20.056Z,15.03
2018-11-03T07:07:49.105Z,14.97
2018-11-03T07:10:18.206Z,14.50
2018-11-03T07:12:47.504Z,14.90
2018-11-03T07:15:16.406Z,15.10
2018-11-03T07:17:46.548Z,15.93
2018-11-03T07:20:15.647Z,15.73
2018-11-03T07:22:44.796Z,15.67
2018-11-03T07:25:13.876Z,16.30
2018-11-03T07:27:46.789Z,16.83
2018-11-03T07:30:15.954Z,16.30
2018-11-03T07:32:45.036Z,17.03
2018-11-03T07:35:14.144Z,16.17
2018-11-03T07:37:43.207Z,15.73
2018-11-03T07:40:15.849Z,16.47
2018-11-03T07:42:44.992Z,15.77
2018-11-03T07:45:14.042Z,15.53
2018-11-03T07:47:43.193Z,15.17
2018-11-03T07:50:13.084Z,13.50
2018-11-03T07:52:42.915Z,15.13
2018-11-03T07:55:15.724Z,14.27
2018-11-03T07:57:44.806Z,14.03
2018-11-03T08:00:15.663Z,13.53
2018-11-03T08:02:44.726Z,14.80
2018-11-03T08:05:14.830Z,13.63
2018-11-03T08:07:45.004Z,13.97
2018-11-03T08:10:14.174Z,13.07
2018-11-03T08:12:43.368Z,13.97
2018-11-03T08:15:12.562Z,13.73
2018-11-03T08:17:41.633Z,14.27
2018-11-03T08:20:11.632Z,13.87
2018-11-03T08:22:40.670Z,13.47
2018-11-03T08:25:09.683Z,14.63
2018-11-03T08:27:38.682Z,13.40
2018-11-03T08:30:11.690Z,13.17
2018-11-03T08:32:40.781Z,13.00
2018-11-03T08:35:10.746Z,13.30
2018-11-03T08:37:40.280Z,13.50
2018-11-03T08:40:11.999Z,12.87
2018-11-03T08:42:41.150Z,13.87
2018-11-03T08:45:10.934Z,13.10
2018-11-03T08:47:39.968Z,13.47
2018-11-03T08:50:10.567Z,13.73
2018-11-03T08:52:39.847Z,13.27
2018-11-03T08:55:10.008Z,13.57
2018-11-03T08:57:39.028Z,13.87
2018-11-03T09:00:11.013Z,13.80
2018-11-03T09:02:40.365Z,12.80
2018-11-03T09:05:10.171Z,13.07
2018-11-03T09:07:39.924Z,13.43
2018-11-03T09:10:11.000Z,12.83
2018-11-03T09:12:40.038Z,12.60
2018-11-03T09:15:10.990Z,12.63
2018-11-03T09:17:40.908Z,12.87
2018-11-03T09:20:11.038Z,12.60
2018-11-03T09:22:40.273Z,13.03
2018-11-03T09:25:11.459Z,12.47
2018-11-03T09:27:41.689Z,12.37
2018-11-03T09:30:12.805Z,11.80
2018-11-03T09:32:41.865Z,12.40
2018-11-03T09:35:11.875Z,12.60
2018-11-03T09:37:40.915Z,13.03
2018-11-03T09:40:12.429Z,12.10
2018-11-03T09:42:42.167Z,12.93
2018-11-03T09:45:12.026Z,11.97
2018-11-03T09:47:41.393Z,11.33
2018-11-03T09:50:12.024Z,11.63
2018-11-03T09:52:41.531Z,11.73
2018-11-03T09:55:13.308Z,10.47
2018-11-03T09:57:42.715Z,10.70
2018-11-03T10:00:15.046Z,10.07
2018-11-03T10:02:44.056Z,10.67
2018-11-03T10:05:13.987Z,9.80
2018-11-03T10:07:43.058Z,10.17
2018-11-03T10:10:19.575Z,10.50
2018-11-03T10:12:48.566Z,10.33
2018-11-03T10:15:18.671Z,9.60
2018-11-03T10:17:47.849Z,9.77
2018-11-03T10:20:17.737Z,9.93
2018-11-03T10:22:46.862Z,10.33
2018-11-03T10:25:17.049Z,10.40
2018-11-03T10:27:46.441Z,9.77
2018-11-03T10:30:16.305Z,9.80
2018-11-03T10:32:45.759Z,9.30
2018-11-03T10:35:15.112Z,9.90
2018-11-03T10:37:44.438Z,8.47
2018-11-03T10:40:14.988Z,7.60
2018-11-03T10:42:44.247Z,8.00
2018-11-03T10:45:14.568Z,8.20
2018-11-03T10:47:43.777Z,7.60
2018-11-03T10:50:14.587Z,8.00
2018-11-03T10:52:44.373Z,7.43
2018-11-03T10:55:14.740Z,6.83
2018-11-03T10:57:44.018Z,9.20
2018-11-03T11:02:21.776Z,13.00
2018-11-03T11:04:56.035Z,9.73
2018-11-03T11:07:30.382Z,7.20
2018-11-03T11:10:04.774Z,7.67
2018-11-03T11:12:36.292Z,5.50
2018-11-03T11:15:06.491Z,6.60
2018-11-03T11:17:35.528Z,5.93
2018-11-03T11:20:04.959Z,7.90
2018-11-03T11:22:34.035Z,6.20
2018-11-03T11:25:03.525Z,5.60
2018-11-03T11:27:32.362Z,7.70
2018-11-03T11:30:01.377Z,6.70
2018-11-03T11:32:30.440Z,6.93
2018-11-03T11:34:59.448Z,7.13
2018-11-03T11:37:28.566Z,6.63
2018-11-03T11:39:57.465Z,6.77
2018-11-03T11:42:26.495Z,6.47
2018-11-03T11:44:55.574Z,6.00
2018-11-03T11:47:24.589Z,6.17
2018-11-03T11:49:53.596Z,6.10
2018-11-03T11:52:22.758Z,6.07
2018-11-03T11:54:51.908Z,5.47
2018-11-03T11:57:20.932Z,5.60
2018-11-03T11:59:49.929Z,6.53
2018-11-03T12:02:20.576Z,6.30
2018-11-03T12:04:50.647Z,5.90
2018-11-03T12:07:19.677Z,5.83
2018-11-03T12:09:48.759Z,6.23
2018-11-03T12:12:17.795Z,5.43
2018-11-03T12:14:46.830Z,6.60
2018-11-03T12:17:15.849Z,5.63
2018-11-03T12:19:44.869Z,3.53
2018-11-03T12:22:13.910Z,3.70
2018-11-03T12:24:42.918Z,3.33
2018-11-03T12:27:11.913Z,4.33
2018-11-03T12:29:40.916Z,4.60
2018-11-03T12:32:09.922Z,4.90
2018-11-03T12:34:38.926Z,4.57
2018-11-03T12:37:07.980Z,4.70
2018-11-03T12:39:36.979Z,4.10
2018-11-03T12:42:06.140Z,4.47
2018-11-03T12:44:35.150Z,4.37
2018-11-03T12:47:04.184Z,5.07
2018-11-03T12:49:33.205Z,5.03
2018-11-03T12:52:02.293Z,5.03
2018-11-03T12:54:31.335Z,4.63
2018-11-03T12:57:00.371Z,4.70
2018-11-03T12:59:29.396Z,4.47
2018-11-03T13:01:58.423Z,4.53
2018-11-03T13:04:27.453Z,4.80
2018-11-03T13:06:56.544Z,4.77
2018-11-03T13:09:25.516Z,4.23
2018-11-03T13:11:55.722Z,4.80
2018-11-03T13:14:24.739Z,4.77
2018-11-03T13:16:53.772Z,5.00
2018-11-03T13:19:22.823Z,6.23
2018-11-03T13:21:51.847Z,5.60
2018-11-03T13:24:20.846Z,8.00
2018-11-03T13:26:49.874Z,5.97
2018-11-03T13:29:18.940Z,5.23
2018-11-03T13:31:47.958Z,5.17
2018-11-03T13:34:16.959Z,5.90
2018-11-03T13:36:45.991Z,5.60
2018-11-03T13:39:15.053Z,5.07
2018-11-03T13:41:44.051Z,4.50
2018-11-03T13:44:13.068Z,3.87
2018-11-03T13:46:42.102Z,3.90
2018-11-03T13:49:11.143Z,3.90
2018-11-03T13:51:40.168Z,3.13
2018-11-03T13:54:09.217Z,2.73
2018-11-03T13:56:38.242Z,3.40
2018-11-03T13:59:08.603Z,2.57
2018-11-03T14:01:37.680Z,2.67
2018-11-03T14:04:06.688Z,3.10
2018-11-03T14:06:35.707Z,2.90
2018-11-03T14:09:05.925Z,3.43
2018-11-03T14:11:34.954Z,3.43
2018-11-03T14:14:04.018Z,3.50
2018-11-03T14:16:33.080Z,3.17
2018-11-03T14:19:02.128Z,3.00
2018-11-03T14:21:31.233Z,3.17
2018-11-03T14:24:00.492Z,3.33
2018-11-03T14:26:29.574Z,3.30
2018-11-03T14:28:58.626Z,3.03
2018-11-03T14:31:27.602Z,3.43
2018-11-03T14:33:57.825Z,3.30
2018-11-03T14:36:28.159Z,3.10
2018-11-03T14:38:57.112Z,3.03
2018-11-03T14:41:26.152Z,3.53
2018-11-03T14:43:55.198Z,3.00
2018-11-03T14:46:24.250Z,2.97
2018-11-03T14:48:53.319Z,3.33
2018-11-03T14:51:22.329Z,3.50
2018-11-03T14:53:51.340Z,3.13
2018-11-03T14:56:20.389Z,2.87
2018-11-03T14:58:49.461Z,3.20
2018-11-03T15:01:18.522Z,3.00
2018-11-03T15:03:47.547Z,3.50
2018-11-03T15:06:16.566Z,3.37
2018-11-03T15:08:45.652Z,3.70
2018-11-03T15:11:14.670Z,3.00
2018-11-03T15:13:43.727Z,2.87
2018-11-03T15:16:12.669Z,5.60
2018-11-03T15:18:41.675Z,4.20
2018-11-03T15:21:10.724Z,5.97
2018-11-03T15:23:39.748Z,6.20
2018-11-03T15:26:08.820Z,6.60
2018-11-03T15:28:37.830Z,4.10
2018-11-03T15:31:07.192Z,4.30
2018-11-03T15:33:36.242Z,3.97
2018-11-03T15:36:05.416Z,4.10
2018-11-03T15:38:34.425Z,3.60
2018-11-03T15:41:03.576Z,3.50
2018-11-03T15:43:32.582Z,3.33
2018-11-03T15:46:01.665Z,3.20
2018-11-03T15:48:30.666Z,3.63
2018-11-03T15:50:59.648Z,3.90
2018-11-03T15:53:28.652Z,4.20
2018-11-03T15:55:57.684Z,4.17
2018-11-03T15:58:26.710Z,4.10
2018-11-03T16:00:56.249Z,4.10
2018-11-03T16:03:25.283Z,3.90
2018-11-03T16:05:54.322Z,4.70
2018-11-03T16:08:23.339Z,4.87
2018-11-03T16:10:52.342Z,4.87
2018-11-03T16:13:21.322Z,5.17
2018-11-03T16:15:50.413Z,5.60
2018-11-03T16:18:19.936Z,6.00
2018-11-03T16:20:48.917Z,5.47
2018-11-03T16:23:17.949Z,5.20
2018-11-03T16:25:47.015Z,4.93
2018-11-03T16:28:15.985Z,4.93
2018-11-03T16:30:44.980Z,5.30
2018-11-03T16:33:13.977Z,6.17
2018-11-03T16:35:43.102Z,5.70
2018-11-03T16:38:12.037Z,5.30
2018-11-03T16:40:41.039Z,5.63
2018-11-03T16:43:10.043Z,5.40
2018-11-03T16:45:39.058Z,5.83
2018-11-03T16:48:08.069Z,4.83
2018-11-03T16:50:37.089Z,4.60
2018-11-03T16:53:06.117Z,5.00
2018-11-03T16:55:35.219Z,4.80
2018-11-03T16:58:04.277Z,4.63
2018-11-03T17:00:33.346Z,4.30
2018-11-03T17:03:02.357Z,4.87
2018-11-03T17:05:31.399Z,4.70
2018-11-03T17:08:00.400Z,4.83
2018-11-03T17:10:29.410Z,4.73
2018-11-03T17:12:59.410Z,5.33
2018-11-03T17:15:28.365Z,5.67
2018-11-03T17:17:57.370Z,5.87
2018-11-03T17:20:26.400Z,5.10
2018-11-03T17:22:55.443Z,5.53
2018-11-03T17:25:24.493Z,5.53
2018-11-03T17:27:53.496Z,6.57
2018-11-03T17:30:22.549Z,9.57
2018-11-03T17:32:51.587Z,10.83
2018-11-03T17:35:20.677Z,14.20
2018-11-03T17:37:49.693Z,14.27
2018-11-03T17:40:18.731Z,11.53
2018-11-03T17:42:47.779Z,11.80
2018-11-03T17:45:16.823Z,9.27
2018-11-03T17:47:45.876Z,10.80
2018-11-03T17:50:14.898Z,11.03
2018-11-03T17:52:43.927Z,10.93
2018-11-03T17:55:12.963Z,14.87
2018-11-03T17:57:41.986Z,15.17
2018-11-03T18:00:13.358Z,12.20
2018-11-03T18:02:43.271Z,12.03
2018-11-03T18:05:12.511Z,11.27
2018-11-03T18:07:41.565Z,10.70
2018-11-03T18:10:11.753Z,10.23
2018-11-03T18:12:41.091Z,8.10
2018-11-03T18:15:10.622Z,8.47
2018-11-03T18:17:39.735Z,7.73
2018-11-03T18:20:09.560Z,7.93
2018-11-03T18:22:39.192Z,8.73
2018-11-03T18:25:08.986Z,9.33
2018-11-03T18:27:38.172Z,9.40
2018-11-03T18:30:08.933Z,9.50
2018-11-03T18:32:37.952Z,9.20
2018-11-03T18:35:07.413Z,8.70
2018-11-03T18:37:36.493Z,9.63
2018-11-03T18:40:06.230Z,11.13
2018-11-03T18:42:35.246Z,11.00
2018-11-03T18:45:04.327Z,11.23
2018-11-03T18:47:33.382Z,10.47
2018-11-03T18:50:02.412Z,11.40
2018-11-03T18:52:31.475Z,11.57
2018-11-03T18:55:00.485Z,13.50
2018-11-03T18:57:29.505Z,12.67
2018-11-03T18:59:58.545Z,12.20
2018-11-03T19:02:27.595Z,16.43
2018-11-03T19:04:56.619Z,13.77
2018-11-03T19:07:25.663Z,14.63
2018-11-03T19:09:54.680Z,13.90
2018-11-03T19:12:23.727Z,14.37
2018-11-03T19:14:52.746Z,13.83
2018-11-03T19:17:21.827Z,17.47
2018-11-03T19:19:50.832Z,18.87
2018-11-03T19:22:19.876Z,20.10
2018-11-03T19:24:48.917Z,20.63
2018-11-03T19:27:17.968Z,22.37
2018-11-03T19:29:47.051Z,21.80
2018-11-03T19:32:16.049Z,19.87
2018-11-03T19:34:45.000Z,20.57
2018-11-03T19:37:14.040Z,19.43
2018-11-03T19:39:43.081Z,17.00
2018-11-03T19:42:12.101Z,18.73
2018-11-03T19:44:42.411Z,21.40
2018-11-03T19:47:11.460Z,22.80
2018-11-03T19:49:40.530Z,24.83
2018-11-03T19:52:09.569Z,21.10
2018-11-03T19:54:38.619Z,21.53
2018-11-03T19:57:09.010Z,19.70
2018-11-03T19:59:38.010Z,17.73
2018-11-03T20:02:07.069Z,17.57
2018-11-03T20:04:36.147Z,17.07
2018-11-03T20:07:05.323Z,17.87
2018-11-03T20:09:34.366Z,18.50
2018-11-03T20:12:03.426Z,21.73
2018-11-03T20:14:32.484Z,21.47
2018-11-03T20:17:01.545Z,19.57
2018-11-03T20:19:32.772Z,18.67
2018-11-03T20:22:02.382Z,17.73
2018-11-03T20:24:31.421Z,18.23
2018-11-03T20:27:00.506Z,15.53
2018-11-03T20:29:30.622Z,16.50
2018-11-03T20:32:00.251Z,16.70
2018-11-03T20:34:29.224Z,18.37
2018-11-03T20:36:58.288Z,21.10
2018-11-03T20:39:27.321Z,19.77
2018-11-03T20:41:56.434Z,17.60
2018-11-03T20:44:25.412Z,18.50
2018-11-03T20:46:54.436Z,17.70
2018-11-03T20:49:23.504Z,17.97
2018-11-03T20:51:52.507Z,16.80
2018-11-03T20:54:21.524Z,16.87
2018-11-03T20:56:50.570Z,17.13
2018-11-03T20:59:19.618Z,16.90
2018-11-03T21:01:48.658Z,16.00
2018-11-03T21:04:17.692Z,16.13
2018-11-03T21:06:46.760Z,15.90
2018-11-03T21:09:16.262Z,16.13
2018-11-03T21:11:45.322Z,16.53
2018-11-03T21:14:14.332Z,16.73
2018-11-03T21:16:44.736Z,15.73
2018-11-03T21:19:14.027Z,15.17
2018-11-03T21:21:43.058Z,16.13
2018-11-03T21:24:12.210Z,14.57
2018-11-03T21:26:41.176Z,16.37
2018-11-03T21:29:11.288Z,16.70
2018-11-03T21:31:41.707Z,15.63
2018-11-03T21:34:10.714Z,15.43
2018-11-03T21:36:39.746Z,15.30
2018-11-03T21:39:10.031Z,16.27
2018-11-03T21:41:39.237Z,15.47
2018-11-03T21:44:08.626Z,17.60
2018-11-03T21:46:37.790Z,18.00
2018-11-03T21:49:06.755Z,19.27
2018-11-03T21:51:35.810Z,19.63
2018-11-03T21:54:05.231Z,19.03
2018-11-03T21:56:34.938Z,19.83
2018-11-03T21:59:03.961Z,21.33
2018-11-03T22:01:33.924Z,23.07
2018-11-03T22:04:02.967Z,25.27
2018-11-03T22:06:32.020Z,29.63
2018-11-03T22:09:01.117Z,34.63
2018-11-03T22:11:30.127Z,34.47
2018-11-03T22:14:00.375Z,45.63
2018-11-03T22:16:32.520Z,42.33
2018-11-03T22:19:01.557Z,30.17
2018-11-03T22:21:31.326Z,31.97
2018-11-03T22:24:01.230Z,30.80
2018-11-03T22:26:30.346Z,39.93
2018-11-03T22:28:59.371Z,26.73
2018-11-03T22:31:28.604Z,23.47
2018-11-03T22:33:57.652Z,26.03
2018-11-03T22:36:26.667Z,25.40
2018-11-03T22:38:55.676Z,25.47
2018-11-03T22:41:24.682Z,21.57
2018-11-03T22:43:53.733Z,22.07
2018-11-03T22:46:22.765Z,21.00
2018-11-03T22:48:52.001Z,21.30
2018-11-03T22:51:21.107Z,20.27
2018-11-03T22:53:51.062Z,19.40
2018-11-03T22:56:20.079Z,19.67
2018-11-03T22:58:49.120Z,19.60
2018-11-03T23:01:18.175Z,20.40
2018-11-03T23:03:47.184Z,20.77
2018-11-03T23:06:16.229Z,20.73
2018-11-03T23:08:45.269Z,23.50
2018-11-03T23:11:14.349Z,21.47
2018-11-03T23:13:43.396Z,23.73
2018-11-03T23:16:12.405Z,23.30
2018-11-03T23:18:41.769Z,25.37
2018-11-03T23:21:10.818Z,27.00
2018-11-03T23:23:39.829Z,24.33
2018-11-03T23:26:08.849Z,23.90
2018-11-03T23:28:37.838Z,23.33
2018-11-03T23:31:06.860Z,20.47
2018-11-03T23:33:35.872Z,20.63
2018-11-03T23:36:05.004Z,19.27
2018-11-03T23:38:34.034Z,19.07
2018-11-03T23:41:03.075Z,19.90
2018-11-03T23:43:32.082Z,19.27
2018-11-03T23:46:01.146Z,20.90
2018-11-03T23:48:30.166Z,21.43
2018-11-03T23:50:59.207Z,22.57
2018-11-03T23:53:28.289Z,20.27
2018-11-03T23:55:57.241Z,20.77
2018-11-03T23:58:26.226Z,21.23
